MAPA DE AEROPUERTO

INFORMACIÓN METAR y TAF

METAR FOR BGSF
ADDS - METARS form results

(1706 UTC 23 October 2021)
Data provider http://aviationweather.gov/metar/data/
 
METAR text: BGSF 231650Z AUTO 06008KT 9999NDV BKN049/// BKN110/// M06/M15 Q1004
Conditions at: BGSF (SONDRE STROMFJOR, GL) observed 1650 UTC 23 October 2021
Temperature: -6.0°C (21°F)
Dewpoint: -15.0°C ( 5°F) [RH = 49%]
Pressure (altimeter): 29.65 inches Hg (1004.0 mb)
Winds: from the ENE (60 degrees) at 9 MPH (8 knots; 4.1 m/s)
Visibility: missing
Ceiling: 4900 feet AGL
Clouds: broken clouds at 4900 feet AGL
broken clouds at 11000 feet AGL
Weather: no significant weather observed at this time

Forecast for: BGSF (SONDRE STROMFJOR, GL)
Text: TAF BGSF 231700Z 2318/2322 06008KT 9999 BKN045
Forecast period: 1800 to 2200 UTC 23 October 2021
Forecast type: FROM: standard forecast or significant change
Winds: from the ENE (60 degrees) at 9 MPH (8 knots; 4.1 m/s)
Visibility: 6 or more miles (10+ km)
Ceiling: 4500 feet AGL
Clouds: broken clouds at 4500 feet AGL
Weather: no significant weather forecast for this period
Text: TEMPO 2318/2322 SCT045 BKN110
Forecast period: 1800 to 2200 UTC 23 October 2021
Forecast type: TEMPORARY: The following changes expected for less than half the time period
Visibility: missing
Ceiling: 11000 feet AGL
Clouds: scattered clouds at 4500 feet AGL
broken clouds at 11000 feet AGL
Weather: no significant weather forecast for this period